Haverstraw, New York
Current Conditions -  °F | °C
As of 9:56 AM on Thursday 30 Oct 2014 (Local Time) from KHPN Reporting Station
Overcast Overcast  
Wind Chill: 50°   Ceiling: 7000
Heat Index: 50°   Visibility: 10mi
Dew Point: 42°   Wind: 8mph
Humidity: 74%   Direction: 320°NW
Pressure: 29.98"   Gusts: NA
Location:  41.2°N, 73.96°W
Report Text: KHPN 301356Z 32007KT 10SM OVC070 10/06 A2998 RMK AO2 SLP155 T01000056
Loading
Personal Weather Stations






























Interactive Weather Map
Tropical Storm Tracking
New forecast layout! Learn more

10-Day Weather Forecast

Advertisements
Track Severe Weather on mobile